Time;durP1;ratioP1;P1;durP2;ratioP2;P2;SDS_P1;SDS_P2;PMS_P1;PMS_P2;Temp;Humidity;BMP_temperature;BMP_pressure;BME280_temperature;BME280_humidity;BME280_pressure;Samples;Min_cycle;Max_cycle;Signal;HPM_P1;HPM_P2
2023/04/01 00:00:54;;;;;;;;;;;;;;;10.54;65.49;98907.91;5031014;28;20410;-85
2023/04/01 00:03:20;;;;;;;;;;;;;;;10.51;65.59;98910.63;5013267;28;19917;-85
2023/04/01 00:05:46;;;;;;;;;;;;;;;10.39;65.27;98917.09;5031743;28;20007;-84
2023/04/01 00:08:11;;;;;;;;;;;;;;;10.15;66.03;98929.13;5030870;28;19921;-85
2023/04/01 00:10:36;;;;;;;;;;;;;;;10.10;66.88;98935.41;5031291;28;19920;-85
2023/04/01 00:13:02;;;;;;;;;;;;;;;10.03;67.50;98929.44;5031563;28;19936;-85
2023/04/01 00:15:28;;;;;;;;;;;;;;;10.17;66.81;98929.06;5030707;28;20401;-85
2023/04/01 00:17:54;;;;;;;;;;;;;;;10.31;66.20;98924.31;5030777;28;20391;-85
2023/04/01 00:20:19;;;;;;;;;;;;;;;10.33;65.56;98919.91;5030924;28;20287;-85
2023/04/01 00:22:45;;;;;;;;;;;;;;;10.22;65.85;98935.09;5031286;28;19919;-85
2023/04/01 00:25:11;;;;;;;;;;;;;;;10.16;65.98;98937.88;5030620;28;19917;-85
2023/04/01 00:27:36;;;;;;;;;;;;;;;10.20;65.42;98924.56;5031325;28;19917;-86
2023/04/01 00:30:02;;;;;;;;;;;;;;;10.06;65.84;98926.72;5031172;28;19920;-86
2023/04/01 00:32:27;;;;;;;;;;;;;;;10.15;65.44;98936.16;5030237;28;20382;-86
2023/04/01 00:34:52;;;;;;;;;;;;;;;10.08;65.18;98932.78;5030959;28;19917;-86
2023/04/01 00:37:18;;;;;;;;;;;;;;;9.93;65.51;98936.69;5031037;28;19928;-86
2023/04/01 00:39:44;;;;;;;;;;;;;;;9.72;66.07;98940.69;5013074;28;19917;-86
2023/04/01 00:42:10;;;;;;;;;;;;;;;9.59;67.03;98947.16;5030799;28;20238;-86
2023/04/01 00:44:37;;;;;;;;;;;;;;;9.55;66.35;98941.09;5030791;28;19963;-85
2023/04/01 00:47:02;;;;;;;;;;;;;;;9.74;65.90;98932.75;5030007;28;19948;-86
2023/04/01 00:49:32;;;;;;;;;;;;;;;9.82;65.64;98938.69;5030262;28;20007;-85
2023/04/01 00:51:59;;;;;;;;;;;;;;;9.73;66.18;98938.91;5030635;28;20411;-86
2023/04/01 00:54:25;;;;;;;;;;;;;;;9.65;65.67;98936.47;5030676;28;19913;-86
2023/04/01 00:56:56;;;;;;;;;;;;;;;9.36;67.21;98935.38;5030228;28;19917;-86
2023/04/01 00:59:34;;;;;;;;;;;;;;;9.44;66.80;98932.59;5011888;28;19967;-85
2023/04/01 01:02:01;;;;;;;;;;;;;;;9.49;66.51;98928.94;5012153;28;20367;-84
2023/04/01 01:04:28;;;;;;;;;;;;;;;9.34;65.51;98928.41;5030718;28;20011;-85
2023/04/01 01:07:11;;;;;;;;;;;;;;;9.25;65.79;98924.22;5030775;28;20291;-85
2023/04/01 01:09:52;;;;;;;;;;;;;;;8.91;67.66;98923.19;5030907;28;19917;-85
2023/04/01 01:12:23;;;;;;;;;;;;;;;8.85;67.64;98923.31;5030581;28;19917;-85
2023/04/01 01:14:55;;;;;;;;;;;;;;;8.89;68.92;98924.09;5030440;28;19917;-85
2023/04/01 01:17:26;;;;;;;;;;;;;;;9.10;68.17;98921.03;5030169;28;20074;-86
2023/04/01 01:20:03;;;;;;;;;;;;;;;9.07;68.04;98926.34;5030079;28;19947;-86
2023/04/01 01:22:36;;;;;;;;;;;;;;;9.13;67.99;98923.59;5030152;28;19917;-86
2023/04/01 01:25:13;;;;;;;;;;;;;;;9.34;68.00;98925.78;5030038;28;19920;-85
2023/04/01 01:27:41;;;;;;;;;;;;;;;9.14;67.76;98917.44;5030316;28;20031;-85
2023/04/01 01:30:18;;;;;;;;;;;;;;;9.15;67.39;98915.66;5029093;28;19935;-85
2023/04/01 01:32:46;;;;;;;;;;;;;;;9.21;67.96;98925.19;5030099;28;19948;-86
2023/04/01 01:35:30;;;;;;;;;;;;;;;9.31;67.97;98926.69;5029656;28;20316;-85
2023/04/01 01:37:59;;;;;;;;;;;;;;;9.45;67.63;98927.28;5030108;28;19921;-86
2023/04/01 01:40:26;;;;;;;;;;;;;;;9.35;68.60;98928.38;5029678;28;20008;-86
2023/04/01 01:42:53;;;;;;;;;;;;;;;9.37;68.59;98920.44;5029801;28;20456;-85
2023/04/01 01:45:21;;;;;;;;;;;;;;;9.36;68.94;98914.31;5029577;28;19913;-85
2023/04/01 01:47:48;;;;;;;;;;;;;;;9.54;68.99;98920.06;5029839;28;19917;-85
2023/04/01 01:50:14;;;;;;;;;;;;;;;9.40;69.37;98910.72;5012125;28;19920;-87
2023/04/01 01:52:40;;;;;;;;;;;;;;;9.50;69.51;98906.13;5030110;28;20007;-87
2023/04/01 01:55:24;;;;;;;;;;;;;;;9.58;68.62;98909.44;5012291;28;20012;-85
2023/04/01 01:57:50;;;;;;;;;;;;;;;9.32;69.69;98921.41;5030188;28;19924;-85
2023/04/01 02:00:17;;;;;;;;;;;;;;;8.99;71.79;98907.25;5030211;28;19913;-84
2023/04/01 02:02:43;;;;;;;;;;;;;;;8.98;71.84;98894.97;5029959;28;19975;-84
2023/04/01 02:05:16;;;;;;;;;;;;;;;9.28;71.18;98897.81;5031711;28;19913;-85
2023/04/01 02:07:43;;;;;;;;;;;;;;;9.49;70.65;98889.44;5033765;28;19916;-85
2023/04/01 02:10:08;;;;;;;;;;;;;;;9.59;70.36;98894.47;5032496;28;19921;-85
2023/04/01 02:12:36;;;;;;;;;;;;;;;9.61;70.47;98890.91;5015243;28;19968;-85
2023/04/01 02:15:05;;;;;;;;;;;;;;;9.54;70.59;98889.31;5033161;28;19909;-85
2023/04/01 02:17:32;;;;;;;;;;;;;;;9.63;70.40;98886.47;5033086;28;19913;-85
2023/04/01 02:19:59;;;;;;;;;;;;;;;9.70;70.03;98879.31;5033496;28;20008;-86
2023/04/01 02:22:29;;;;;;;;;;;;;;;9.51;70.01;98873.59;5033133;28;19913;-86
2023/04/01 02:24:57;;;;;;;;;;;;;;;9.63;69.99;98880.34;5032865;28;19924;-85
2023/04/01 02:27:23;;;;;;;;;;;;;;;9.57;69.73;98888.41;5032838;28;19974;-86
2023/04/01 02:29:49;;;;;;;;;;;;;;;9.43;70.10;98899.25;5032994;28;20349;-86
2023/04/01 02:32:15;;;;;;;;;;;;;;;9.54;70.65;98904.25;5033026;28;19970;-85
2023/04/01 02:34:42;;;;;;;;;;;;;;;9.53;69.48;98911.31;5032577;28;20070;-86
2023/04/01 02:37:07;;;;;;;;;;;;;;;9.53;69.97;98908.69;5014463;28;19924;-85
2023/04/01 02:39:32;;;;;;;;;;;;;;;9.48;69.67;98895.63;5021823;28;19921;-86
2023/04/01 02:41:58;;;;;;;;;;;;;;;9.50;69.85;98879.78;4995201;28;20345;-85
2023/04/01 02:44:23;;;;;;;;;;;;;;;9.48;70.79;98871.94;5013425;28;19913;-85
2023/04/01 02:46:48;;;;;;;;;;;;;;;9.41;70.91;98875.59;5013327;28;19920;-85
2023/04/01 02:49:14;;;;;;;;;;;;;;;9.38;71.04;98869.53;5030796;28;19947;-85
2023/04/01 02:51:39;;;;;;;;;;;;;;;9.32;72.10;98868.75;5014583;28;19914;-86
2023/04/01 02:54:04;;;;;;;;;;;;;;;9.34;71.69;98876.63;5014505;28;19917;-86
2023/04/01 02:56:30;;;;;;;;;;;;;;;9.29;72.88;98884.63;5032521;28;19913;-86
2023/04/01 02:58:55;;;;;;;;;;;;;;;9.37;71.74;98884.44;5032582;28;19917;-86
2023/04/01 03:01:21;;;;;;;;;;;;;;;9.38;71.03;98894.09;5013772;28;19974;-86
2023/04/01 03:03:46;;;;;;;;;;;;;;;9.30;71.08;98886.38;5032216;28;19959;-87
2023/04/01 03:06:13;;;;;;;;;;;;;;;9.37;70.66;98876.56;5032420;28;19921;-86
2023/04/01 03:08:39;;;;;;;;;;;;;;;9.39;71.14;98879.16;5032478;28;20008;-86
2023/04/01 03:11:05;;;;;;;;;;;;;;;9.51;70.35;98860.44;5031532;28;20073;-86
2023/04/01 03:13:30;;;;;;;;;;;;;;;9.39;71.81;98858.09;5014155;28;19948;-86
2023/04/01 03:15:56;;;;;;;;;;;;;;;9.32;71.87;98868.75;5031397;28;19967;-85
2023/04/01 03:18:21;;;;;;;;;;;;;;;9.30;71.14;98860.06;5014564;28;19920;-89
2023/04/01 03:20:46;;;;;;;;;;;;;;;9.31;71.46;98863.53;5031876;28;19917;-87
2023/04/01 03:23:12;;;;;;;;;;;;;;;9.03;71.66;98868.56;5032033;28;20354;-86
2023/04/01 03:25:37;;;;;;;;;;;;;;;8.73;72.89;98870.97;5031762;28;20013;-86
2023/04/01 03:28:03;;;;;;;;;;;;;;;9.01;72.71;98875.63;5032562;28;20030;-87
2023/04/01 03:30:30;;;;;;;;;;;;;;;9.00;73.14;98874.75;5032182;28;19909;-86
2023/04/01 03:32:56;;;;;;;;;;;;;;;9.05;72.18;98869.38;5031760;28;19913;-85
2023/04/01 03:35:21;;;;;;;;;;;;;;;9.14;72.35;98879.72;5031794;28;19923;-86
2023/04/01 03:37:46;;;;;;;;;;;;;;;9.10;72.62;98873.66;5031520;28;20497;-86
2023/04/01 03:40:12;;;;;;;;;;;;;;;8.96;73.37;98857.31;5031896;28;19917;-86
2023/04/01 03:42:38;;;;;;;;;;;;;;;9.03;72.62;98860.66;5031528;28;19920;-86
2023/04/01 03:45:04;;;;;;;;;;;;;;;9.05;72.69;98851.84;5031489;28;19917;-86
2023/04/01 03:47:29;;;;;;;;;;;;;;;9.03;72.56;98842.25;5031522;28;19944;-86
2023/04/01 03:49:55;;;;;;;;;;;;;;;8.99;72.44;98837.97;5031637;28;19917;-85
2023/04/01 03:52:20;;;;;;;;;;;;;;;8.88;71.40;98846.97;5014041;28;20004;-85
2023/04/01 03:54:45;;;;;;;;;;;;;;;8.82;71.78;98847.09;5019554;28;19952;-85
2023/04/01 03:57:11;;;;;;;;;;;;;;;8.88;71.52;98852.22;4999626;28;20316;-85
2023/04/01 03:59:36;;;;;;;;;;;;;;;8.81;71.73;98847.97;5028259;28;19943;-85
2023/04/01 04:02:01;;;;;;;;;;;;;;;8.91;71.54;98840.75;5031042;28;19924;-86
2023/04/01 04:04:27;;;;;;;;;;;;;;;8.92;71.09;98839.88;5027398;28;19926;-86
2023/04/01 04:06:52;;;;;;;;;;;;;;;8.80;71.19;98842.75;5009682;28;19917;-87
2023/04/01 04:09:17;;;;;;;;;;;;;;;8.88;70.62;98836.44;5013598;28;19917;-87
2023/04/01 04:11:43;;;;;;;;;;;;;;;8.81;70.82;98833.97;5013659;28;19975;-87
2023/04/01 04:14:08;;;;;;;;;;;;;;;8.77;71.37;98825.28;5011128;28;19918;-88
2023/04/01 04:16:36;;;;;;;;;;;;;;;8.52;72.83;98819.69;5008052;28;19916;-85
2023/04/01 04:19:01;;;;;;;;;;;;;;;8.64;72.05;98823.81;5030416;28;19917;-86
2023/04/01 04:21:27;;;;;;;;;;;;;;;8.58;72.69;98830.91;5031445;28;19924;-85
2023/04/01 04:23:52;;;;;;;;;;;;;;;8.72;72.56;98824.50;5032691;28;19917;-86
2023/04/01 04:26:17;;;;;;;;;;;;;;;8.76;72.49;98831.44;5032239;28;19982;-87
2023/04/01 04:28:43;;;;;;;;;;;;;;;8.83;72.52;98840.06;5030387;28;19913;-86
2023/04/01 04:31:08;;;;;;;;;;;;;;;8.88;72.24;98841.72;5029644;28;19917;-84
2023/04/01 04:33:34;;;;;;;;;;;;;;;8.86;72.31;98834.75;5028971;28;20314;-85
2023/04/01 04:36:02;;;;;;;;;;;;;;;9.04;71.90;98836.97;5023976;28;19925;-85
2023/04/01 04:38:28;;;;;;;;;;;;;;;8.64;73.69;98837.81;5023846;28;19923;-85
2023/04/01 04:40:53;;;;;;;;;;;;;;;8.78;74.44;98841.00;5025314;28;19917;-85
2023/04/01 04:43:19;;;;;;;;;;;;;;;8.96;74.19;98838.91;5023574;28;20329;-84
2023/04/01 04:45:45;;;;;;;;;;;;;;;9.07;74.87;98830.78;4998606;28;19928;-83
2023/04/01 04:48:15;;;;;;;;;;;;;;;9.28;74.32;98834.66;5026959;28;20000;-84
2023/04/01 04:50:41;;;;;;;;;;;;;;;9.49;72.95;98839.41;5011811;28;20026;-82
2023/04/01 04:53:09;;;;;;;;;;;;;;;9.65;72.18;98836.41;5021474;28;19916;-84
2023/04/01 04:55:34;;;;;;;;;;;;;;;9.95;71.38;98828.66;5016361;28;19921;-82
2023/04/01 04:57:59;;;;;;;;;;;;;;;9.94;71.01;98837.44;5021578;28;19913;-86
2023/04/01 05:00:25;;;;;;;;;;;;;;;9.97;70.83;98843.47;5012385;28;19909;-83
2023/04/01 05:02:50;;;;;;;;;;;;;;;9.67;70.83;98787.22;5024195;28;19971;-84
2023/04/01 05:05:16;;;;;;;;;;;;;;;10.10;70.42;98838.78;5011099;28;19991;-84
2023/04/01 05:07:41;;;;;;;;;;;;;;;10.18;70.28;98839.44;5010471;28;19917;-83
2023/04/01 05:10:06;;;;;;;;;;;;;;;10.40;69.44;98830.97;5020705;28;19913;-83
2023/04/01 05:12:35;;;;;;;;;;;;;;;10.62;69.23;98825.06;5029937;28;20462;-84
2023/04/01 05:15:01;;;;;;;;;;;;;;;10.77;68.40;98822.00;5020273;28;19913;-84
2023/04/01 05:17:26;;;;;;;;;;;;;;;10.84;68.28;98820.88;5019161;28;19932;-83
2023/04/01 05:19:52;;;;;;;;;;;;;;;10.68;69.67;98820.47;5010375;28;20011;-82
2023/04/01 05:22:17;;;;;;;;;;;;;;;10.66;70.52;98813.50;5016833;28;20006;-83
2023/04/01 05:24:42;;;;;;;;;;;;;;;10.82;69.86;98827.97;5029869;28;19971;-83
2023/04/01 05:27:08;;;;;;;;;;;;;;;11.03;69.50;98837.03;5022831;28;19963;-84
2023/04/01 05:29:33;;;;;;;;;;;;;;;11.23;68.86;98819.69;5023083;28;19996;-84
2023/04/01 05:31:58;;;;;;;;;;;;;;;11.51;68.41;98822.34;5013519;28;19921;-84
2023/04/01 05:34:24;;;;;;;;;;;;;;;11.51;67.94;98821.44;5025329;28;19917;-84
2023/04/01 05:36:50;;;;;;;;;;;;;;;11.47;68.25;98813.63;5029611;28;19971;-83
2023/04/01 05:39:15;;;;;;;;;;;;;;;11.41;68.14;98818.25;5032131;28;20015;-84
2023/04/01 05:41:40;;;;;;;;;;;;;;;11.68;67.25;98816.50;5033919;28;19916;-84
2023/04/01 05:44:05;;;;;;;;;;;;;;;11.63;67.04;98823.69;5032436;28;19913;-86
2023/04/01 05:46:31;;;;;;;;;;;;;;;11.69;67.10;98810.28;5013794;28;19913;-83
2023/04/01 05:48:57;;;;;;;;;;;;;;;11.25;68.08;98799.41;5016968;28;19917;-88
2023/04/01 05:51:22;;;;;;;;;;;;;;;10.96;69.87;98801.19;5027379;28;19920;-84
2023/04/01 05:53:47;;;;;;;;;;;;;;;10.86;69.98;98790.06;5034138;28;19979;-87
2023/04/01 05:56:13;;;;;;;;;;;;;;;10.68;70.92;98783.56;5031656;28;19917;-89
2023/04/01 05:58:39;;;;;;;;;;;;;;;10.42;72.20;98780.81;5010957;28;20375;-85
2023/04/01 06:01:06;;;;;;;;;;;;;;;10.18;72.41;98763.00;5029508;28;19917;-86
2023/04/01 06:03:31;;;;;;;;;;;;;;;9.96;74.12;98753.94;5027122;28;19913;-86
2023/04/01 06:05:57;;;;;;;;;;;;;;;10.15;74.67;98752.53;5033407;28;20427;-86
2023/04/01 06:08:22;;;;;;;;;;;;;;;10.21;74.80;98754.16;5015831;28;19928;-86
2023/04/01 06:10:50;;;;;;;;;;;;;;;10.28;74.77;98760.09;5034023;28;19913;-87
2023/04/01 06:13:25;;;;;;;;;;;;;;;10.56;73.68;98762.81;5011347;28;19975;-87
2023/04/01 06:16:20;;;;;;;;;;;;;;;10.69;73.20;98742.19;5006768;28;19999;-86
2023/04/01 06:18:51;;;;;;;;;;;;;;;10.60;74.80;98737.22;4963080;28;19924;-85
2023/04/01 06:21:19;;;;;;;;;;;;;;;10.88;73.45;98750.44;4965793;28;19947;-86
2023/04/01 06:23:56;;;;;;;;;;;;;;;11.22;72.49;98736.16;4971303;28;19985;-83
2023/04/01 06:26:21;;;;;;;;;;;;;;;11.36;71.73;98730.41;4967951;28;19961;-84
2023/04/01 06:29:05;;;;;;;;;;;;;;;11.47;71.58;98730.91;4970717;28;19957;-85
2023/04/01 06:31:30;;;;;;;;;;;;;;;11.45;72.33;98730.09;4954680;28;20330;-84
2023/04/01 06:34:12;;;;;;;;;;;;;;;11.37;73.71;98725.09;4971369;28;20017;-83
2023/04/01 06:36:37;;;;;;;;;;;;;;;11.53;74.52;98732.47;4976212;28;19917;-84
2023/04/01 06:39:12;;;;;;;;;;;;;;;11.42;72.76;98725.78;4973352;28;19925;-83
2023/04/01 06:41:53;;;;;;;;;;;;;;;11.39;72.36;98725.88;4966094;28;20017;-84
2023/04/01 06:44:34;;;;;;;;;;;;;;;11.34;72.46;98717.25;4968708;28;19926;-83
2023/04/01 06:47:07;;;;;;;;;;;;;;;11.37;73.23;98719.81;4971660;28;20277;-82
2023/04/01 06:49:40;;;;;;;;;;;;;;;11.40;74.13;98713.53;4970461;28;19918;-84
2023/04/01 06:52:11;;;;;;;;;;;;;;;11.57;73.34;98721.75;4971245;28;19916;-88
2023/04/01 06:54:44;;;;;;;;;;;;;;;11.79;71.91;98732.44;4982617;28;19921;-85
2023/04/01 06:57:19;;;;;;;;;;;;;;;12.07;71.08;98730.63;5026860;28;19913;-85
2023/04/01 06:59:44;;;;;;;;;;;;;;;12.35;70.39;98727.81;5020166;28;20390;-84
2023/04/01 07:02:10;;;;;;;;;;;;;;;12.50;69.21;98729.03;5015390;28;19925;-84
2023/04/01 07:04:40;;;;;;;;;;;;;;;12.52;69.38;98725.38;5026967;28;19928;-84
2023/04/01 07:07:13;;;;;;;;;;;;;;;12.84;70.85;98719.78;5027492;28;19913;-83
2023/04/01 07:09:40;;;;;;;;;;;;;;;12.74;69.27;98726.34;5029666;28;19964;-86
2023/04/01 07:12:23;;;;;;;;;;;;;;;12.86;68.67;98725.84;5023413;28;20419;-85
2023/04/01 07:14:51;;;;;;;;;;;;;;;12.85;67.73;98725.00;5020115;28;20411;-85
2023/04/01 07:17:27;;;;;;;;;;;;;;;12.68;69.33;98699.22;5011081;28;20465;-84
2023/04/01 07:19:53;;;;;;;;;;;;;;;13.01;69.13;98706.72;5025745;28;19917;-84
2023/04/01 07:22:21;;;;;;;;;;;;;;;13.07;67.93;98693.22;5007978;28;19964;-83
2023/04/01 07:24:48;;;;;;;;;;;;;;;13.18;68.18;98698.06;5021272;28;20032;-83
2023/04/01 07:27:14;;;;;;;;;;;;;;;13.49;68.17;98693.31;5022457;28;19917;-84
2023/04/01 07:29:40;;;;;;;;;;;;;;;13.73;66.52;98691.38;5022611;28;19956;-84
2023/04/01 07:32:05;;;;;;;;;;;;;;;13.49;66.53;98683.56;5021466;28;19972;-84
2023/04/01 07:34:30;;;;;;;;;;;;;;;13.34;65.67;98684.22;5020540;28;19909;-84
2023/04/01 07:37:02;;;;;;;;;;;;;;;13.40;66.63;98683.97;5007009;28;20394;-83
2023/04/01 07:39:27;;;;;;;;;;;;;;;13.74;66.77;98677.19;5025492;28;20335;-84
2023/04/01 07:42:06;;;;;;;;;;;;;;;13.97;67.39;98678.84;5026227;28;19925;-83
2023/04/01 07:44:38;;;;;;;;;;;;;;;14.12;65.30;98678.13;5024589;28;19979;-84
2023/04/01 07:47:09;;;;;;;;;;;;;;;14.05;65.44;98671.38;5026854;28;20003;-84
2023/04/01 07:49:53;;;;;;;;;;;;;;;14.33;64.59;98665.69;5031390;28;19971;-84
2023/04/01 07:52:37;;;;;;;;;;;;;;;14.28;64.05;98657.06;5030834;28;20361;-84
2023/04/01 07:55:09;;;;;;;;;;;;;;;14.35;63.89;98652.34;5020499;28;20111;-84
2023/04/01 07:57:49;;;;;;;;;;;;;;;14.65;64.31;98654.50;5021232;28;19917;-86
2023/04/01 08:00:20;;;;;;;;;;;;;;;14.61;62.45;98660.88;5016979;28;19971;-85
2023/04/01 08:03:03;;;;;;;;;;;;;;;14.66;62.66;98656.22;5001968;28;20484;-83
2023/04/01 08:05:33;;;;;;;;;;;;;;;14.92;61.52;98665.59;5018366;28;19917;-85
2023/04/01 08:08:17;;;;;;;;;;;;;;;15.13;60.71;98666.28;5011940;28;19952;-84
2023/04/01 08:10:45;;;;;;;;;;;;;;;15.32;60.28;98647.66;5021189;28;20255;-84
2023/04/01 08:13:25;;;;;;;;;;;;;;;15.45;60.35;98636.38;5025884;28;19920;-84
2023/04/01 08:15:55;;;;;;;;;;;;;;;15.22;60.81;98643.72;5016603;28;19913;-83
2023/04/01 08:18:21;;;;;;;;;;;;;;;15.08;60.99;98638.25;5017752;28;19913;-85
2023/04/01 08:20:49;;;;;;;;;;;;;;;15.37;60.98;98634.97;5007209;28;20399;-84
2023/04/01 08:23:32;;;;;;;;;;;;;;;15.37;60.68;98631.47;5019438;28;20055;-84
2023/04/01 08:26:16;;;;;;;;;;;;;;;15.09;60.87;98626.69;5021204;28;19916;-83
2023/04/01 08:29:02;;;;;;;;;;;;;;;15.31;62.08;98619.34;5021237;28;19920;-85
2023/04/01 08:31:43;;;;;;;;;;;;;;;15.39;60.22;98618.94;5022737;28;19953;-83
2023/04/01 08:34:14;;;;;;;;;;;;;;;15.22;62.98;98615.34;5029717;28;19980;-83
2023/04/01 08:36:43;;;;;;;;;;;;;;;15.45;60.80;98620.44;5027610;28;19944;-84
2023/04/01 08:39:15;;;;;;;;;;;;;;;15.72;60.75;98624.31;5013849;28;19917;-85
2023/04/01 08:41:49;;;;;;;;;;;;;;;16.02;60.73;98606.78;5017649;28;19966;-84
2023/04/01 08:44:30;;;;;;;;;;;;;;;16.14;60.04;98598.13;5028214;28;19924;-83
2023/04/01 08:46:56;;;;;;;;;;;;;;;16.22;56.94;98595.94;5009643;28;19910;-83
2023/04/01 08:49:21;;;;;;;;;;;;;;;15.69;59.60;98584.59;5004688;28;20076;-84
2023/04/01 08:51:46;;;;;;;;;;;;;;;15.63;59.34;98594.66;5019144;28;19951;-85
2023/04/01 08:54:34;;;;;;;;;;;;;;;15.66;59.88;98581.22;5029177;28;19920;-85
2023/04/01 08:57:19;;;;;;;;;;;;;;;15.75;59.73;98578.06;5011188;28;19956;-86
2023/04/01 09:00:00;;;;;;;;;;;;;;;15.87;58.80;98582.75;5029573;28;20333;-86
2023/04/01 09:02:44;;;;;;;;;;;;;;;16.32;57.22;98574.97;5029950;28;19917;-86
2023/04/01 09:05:28;;;;;;;;;;;;;;;16.19;57.67;98560.63;5025607;28;20383;-86
2023/04/01 09:08:05;;;;;;;;;;;;;;;16.61;56.36;98551.16;5013234;28;19917;-86
2023/04/01 09:10:39;;;;;;;;;;;;;;;16.69;56.18;98558.72;5013293;28;19916;-87
2023/04/01 09:13:08;;;;;;;;;;;;;;;16.52;56.54;98528.59;5005846;28;20043;-89
2023/04/01 09:15:45;;;;;;;;;;;;;;;16.45;56.40;98530.75;5031719;28;20038;-89
2023/04/01 09:18:16;;;;;;;;;;;;;;;16.43;56.99;98526.47;5034223;28;19917;-88
2023/04/01 09:20:45;;;;;;;;;;;;;;;16.51;56.37;98515.38;5033869;28;19913;-87
2023/04/01 09:23:17;;;;;;;;;;;;;;;16.71;55.91;98509.72;5033969;28;20340;-85
2023/04/01 09:25:53;;;;;;;;;;;;;;;16.79;55.94;98511.94;5033515;28;19913;-87
2023/04/01 09:28:20;;;;;;;;;;;;;;;16.74;55.58;98503.38;5016044;28;19935;-86
2023/04/01 09:30:45;;;;;;;;;;;;;;;16.44;56.01;98497.09;5026953;28;19940;-87
2023/04/01 09:33:16;;;;;;;;;;;;;;;16.34;56.49;98490.56;5022290;28;20403;-85
2023/04/01 09:35:54;;;;;;;;;;;;;;;16.60;56.22;98478.41;5026688;28;19917;-85
2023/04/01 09:38:30;;;;;;;;;;;;;;;16.83;55.18;98471.72;5029628;28;20451;-86
2023/04/01 09:40:55;;;;;;;;;;;;;;;16.87;55.48;98472.44;5024460;28;19917;-85
2023/04/01 09:43:23;;;;;;;;;;;;;;;16.55;55.81;98475.16;5016342;28;19917;-85
2023/04/01 09:45:55;;;;;;;;;;;;;;;16.88;55.56;98470.63;5017363;28;20004;-84
2023/04/01 09:48:35;;;;;;;;;;;;;;;16.99;56.01;98458.38;5014900;28;19984;-84
2023/04/01 09:51:03;;;;;;;;;;;;;;;17.17;56.17;98458.19;5017339;28;19917;-84
2023/04/01 09:53:54;;;;;;;;;;;;;;;16.98;56.69;98458.47;5016890;28;19976;-84
2023/04/01 09:56:34;;;;;;;;;;;;;;;17.05;56.25;98453.63;5018144;28;19921;-84
2023/04/01 09:59:19;;;;;;;;;;;;;;;16.89;55.68;98459.88;5022332;28;19925;-83
2023/04/01 10:01:56;;;;;;;;;;;;;;;16.32;57.91;98460.56;5017084;28;19924;-85
2023/04/01 10:04:24;;;;;;;;;;;;;;;16.85;57.35;98449.47;5020929;28;20247;-87
2023/04/01 10:06:58;;;;;;;;;;;;;;;16.92;56.43;98443.72;5019193;28;19960;-84
2023/04/01 10:09:42;;;;;;;;;;;;;;;17.05;55.57;98442.97;5023804;28;19970;-84
2023/04/01 10:12:19;;;;;;;;;;;;;;;16.78;56.81;98441.00;5014989;28;19913;-83
2023/04/01 10:14:47;;;;;;;;;;;;;;;17.29;56.95;98430.78;5014437;28;20387;-84
2023/04/01 10:17:13;;;;;;;;;;;;;;;17.67;55.35;98427.50;5032548;28;20306;-85
2023/04/01 10:19:50;;;;;;;;;;;;;;;17.63;53.16;98423.31;5025140;28;19924;-84
2023/04/01 10:22:34;;;;;;;;;;;;;;;17.70;53.02;98411.31;5023414;28;19929;-84
2023/04/01 10:25:00;;;;;;;;;;;;;;;17.70;53.09;98405.09;5021475;28;19917;-84
2023/04/01 10:27:28;;;;;;;;;;;;;;;17.73;54.07;98399.56;5024290;28;19928;-84
2023/04/01 10:30:12;;;;;;;;;;;;;;;18.12;53.84;98387.28;5008085;28;20370;-84
2023/04/01 10:32:56;;;;;;;;;;;;;;;18.41;54.30;98379.97;5022557;28;20433;-84
2023/04/01 10:35:40;;;;;;;;;;;;;;;18.48;52.03;98393.75;5017792;28;20391;-84
2023/04/01 10:38:14;;;;;;;;;;;;;;;18.95;53.50;98388.78;5018762;28;19917;-85
2023/04/01 10:40:52;;;;;;;;;;;;;;;19.34;50.85;98362.88;5023011;28;20314;-84
2023/04/01 10:43:17;;;;;;;;;;;;;;;19.52;51.57;98363.31;4995583;28;19928;-84
2023/04/01 10:45:45;;;;;;;;;;;;;;;19.42;53.63;98348.94;5013160;28;20000;-84
2023/04/01 10:48:25;;;;;;;;;;;;;;;19.61;49.82;98343.94;5012880;28;19913;-85
2023/04/01 10:50:51;;;;;;;;;;;;;;;19.70;48.91;98333.53;5025594;28;19921;-85
2023/04/01 10:53:22;;;;;;;;;;;;;;;19.59;49.21;98328.97;4996056;28;19943;-84
2023/04/01 10:55:59;;;;;;;;;;;;;;;19.76;48.63;98315.19;4993686;28;19930;-84
2023/04/01 10:58:30;;;;;;;;;;;;;;;19.17;50.28;98299.94;4979379;28;20298;-84
2023/04/01 11:01:24;;;;;;;;;;;;;;;19.19;48.93;98298.00;4980103;28;19918;-84
2023/04/01 11:03:56;;;;;;;;;;;;;;;19.27;48.08;98284.06;5005959;28;19925;-87
2023/04/01 11:06:31;;;;;;;;;;;;;;;19.18;49.02;98274.88;5012342;28;20449;-85
2023/04/01 11:09:02;;;;;;;;;;;;;;;18.86;50.42;98269.19;4988456;28;20008;-84
2023/04/01 11:11:27;;;;;;;;;;;;;;;18.73;50.36;98262.03;5011407;28;19913;-86
2023/04/01 11:13:59;;;;;;;;;;;;;;;18.77;50.35;98260.03;5012989;28;19913;-85
2023/04/01 11:16:27;;;;;;;;;;;;;;;19.19;49.62;98249.03;5012471;28;19921;-85
2023/04/01 11:19:05;;;;;;;;;;;;;;;19.24;49.43;98247.72;5012431;28;19927;-85
2023/04/01 11:21:49;;;;;;;;;;;;;;;19.33;49.35;98248.88;5011281;28;19925;-86
2023/04/01 11:24:27;;;;;;;;;;;;;;;19.58;48.43;98255.91;5006490;28;20470;-86
2023/04/01 11:26:56;;;;;;;;;;;;;;;19.38;48.82;98246.69;5009682;28;19948;-87
2023/04/01 11:29:33;;;;;;;;;;;;;;;19.16;50.33;98246.59;4998316;28;20407;-85
2023/04/01 11:32:04;;;;;;;;;;;;;;;19.22;52.03;98232.78;4992446;28;20288;-86
2023/04/01 11:34:39;;;;;;;;;;;;;;;19.40;49.67;98218.03;5023490;28;19913;-85
2023/04/01 11:37:07;;;;;;;;;;;;;;;19.05;51.45;98229.50;5006181;28;19917;-82
2023/04/01 11:39:42;;;;;;;;;;;;;;;18.97;50.77;98223.88;5006223;28;19960;-82
2023/04/01 11:42:10;;;;;;;;;;;;;;;19.17;49.94;98214.41;5011475;28;19918;-83
2023/04/01 11:44:39;;;;;;;;;;;;;;;19.43;50.65;98212.47;5010298;28;19928;-84
2023/04/01 11:47:20;;;;;;;;;;;;;;;19.29;49.71;98205.47;4997348;28;20348;-82
2023/04/01 11:50:03;;;;;;;;;;;;;;;19.37;51.77;98198.69;5009387;28;19917;-83
2023/04/01 11:52:35;;;;;;;;;;;;;;;18.81;51.60;98191.19;5006638;28;19917;-82
2023/04/01 11:55:27;;;;;;;;;;;;;;;18.42;52.62;98194.78;4989506;28;19918;-81
2023/04/01 11:57:52;;;;;;;;;;;;;;;18.19;53.21;98188.41;4975819;28;20373;-83
2023/04/01 12:00:20;;;;;;;;;;;;;;;17.90;54.62;98195.78;5010807;28;19973;-82
2023/04/01 12:03:10;;;;;;;;;;;;;;;17.96;53.96;98179.34;5009396;28;19917;-82
2023/04/01 12:05:43;;;;;;;;;;;;;;;17.66;55.13;98182.28;5010761;28;20016;-83
2023/04/01 12:08:29;;;;;;;;;;;;;;;17.88;55.72;98192.34;5009933;28;19917;-84
2023/04/01 12:11:03;;;;;;;;;;;;;;;17.87;54.87;98187.94;5001596;28;20028;-83
2023/04/01 12:13:47;;;;;;;;;;;;;;;17.54;55.85;98183.97;5011673;28;20379;-84
2023/04/01 12:16:25;;;;;;;;;;;;;;;17.63;55.92;98178.00;5006783;28;19921;-83
2023/04/01 12:18:58;;;;;;;;;;;;;;;17.66;56.75;98168.97;5006899;28;19917;-83
2023/04/01 12:21:37;;;;;;;;;;;;;;;17.83;56.70;98149.13;5010250;28;19917;-83
2023/04/01 12:24:11;;;;;;;;;;;;;;;17.87;54.50;98147.94;5011365;28;19915;-85
2023/04/01 12:26:55;;;;;;;;;;;;;;;17.65;55.28;98153.91;5011214;28;19968;-87
2023/04/01 12:29:35;;;;;;;;;;;;;;;17.87;57.45;98131.94;5010599;28;19936;-85
2023/04/01 12:32:19;;;;;;;;;;;;;;;17.97;55.56;98118.84;4992780;28;19921;-93
2023/04/01 12:34:48;;;;;;;;;;;;;;;18.10;55.86;98116.16;4994243;28;19920;-85
2023/04/01 12:37:16;;;;;;;;;;;;;;;17.88;55.15;98102.53;4991903;28;19917;-87
2023/04/01 12:39:44;;;;;;;;;;;;;;;17.98;55.82;98108.09;4991519;28;19913;-84
2023/04/01 12:42:12;;;;;;;;;;;;;;;18.20;54.96;98109.22;4991897;28;19920;-85
2023/04/01 12:44:53;;;;;;;;;;;;;;;18.24;54.98;98098.22;5003225;28;20375;-84
2023/04/01 12:47:38;;;;;;;;;;;;;;;18.58;54.91;98094.91;5011497;28;20393;-85
2023/04/01 12:50:07;;;;;;;;;;;;;;;18.62;54.49;98099.06;5010402;28;20383;-84
2023/04/01 12:52:41;;;;;;;;;;;;;;;18.66;54.49;98094.34;5010332;28;19925;-84
2023/04/01 12:55:06;;;;;;;;;;;;;;;18.70;53.36;98088.66;4993022;28;20383;-84
2023/04/01 12:57:49;;;;;;;;;;;;;;;18.61;53.85;98084.00;5010855;28;19913;-83
2023/04/01 13:00:35;;;;;;;;;;;;;;;18.75;54.39;98083.84;5010364;28;19924;-83
2023/04/01 13:03:00;;;;;;;;;;;;;;;18.90;53.11;98081.03;5010841;28;19917;-83
2023/04/01 13:05:40;;;;;;;;;;;;;;;18.78;52.82;98072.06;5010457;28;19924;-82
2023/04/01 13:08:09;;;;;;;;;;;;;;;18.98;54.21;98067.94;5002182;28;19961;-83